createdAt,value
2023-12-09T00:00:52.382Z,19.67
2023-12-09T00:03:19.446Z,20.77
2023-12-09T00:05:46.448Z,22.40
2023-12-09T00:08:13.443Z,20.50
2023-12-09T00:10:40.259Z,21.30
2023-12-09T00:13:07.184Z,22.45
2023-12-09T00:15:34.100Z,21.98
2023-12-09T00:18:01.542Z,22.25
2023-12-09T00:20:28.908Z,22.88
2023-12-09T00:22:55.779Z,22.77
2023-12-09T00:25:22.783Z,22.40
2023-12-09T00:27:50.107Z,21.98
2023-12-09T00:30:17.267Z,21.30
2023-12-09T00:32:45.550Z,21.05
2023-12-09T00:35:12.578Z,19.85
2023-12-09T00:37:42.289Z,20.85
2023-12-09T00:40:09.676Z,20.27
2023-12-09T00:42:36.653Z,20.75
2023-12-09T00:45:05.238Z,20.30
2023-12-09T00:47:32.188Z,20.48
2023-12-09T00:49:59.146Z,21.10
2023-12-09T00:52:26.338Z,20.75
2023-12-09T00:54:53.305Z,21.45
2023-12-09T00:57:22.121Z,20.35
2023-12-09T00:59:49.367Z,22.70
2023-12-09T01:02:16.347Z,20.92
2023-12-09T01:04:43.660Z,19.90
2023-12-09T01:07:10.929Z,20.30
2023-12-09T01:09:37.882Z,20.58
2023-12-09T01:12:05.219Z,19.45
2023-12-09T01:14:32.295Z,19.35
2023-12-09T01:16:59.127Z,20.02
2023-12-09T01:19:26.045Z,19.42
2023-12-09T01:21:53.006Z,19.67
2023-12-09T01:24:21.269Z,21.17
2023-12-09T01:26:48.106Z,21.55
2023-12-09T01:29:15.457Z,22.25
2023-12-09T01:31:42.314Z,22.08
2023-12-09T01:34:09.274Z,23.35
2023-12-09T01:36:36.268Z,20.80
2023-12-09T01:39:03.620Z,20.42
2023-12-09T01:41:30.729Z,21.23
2023-12-09T01:43:57.628Z,21.38
2023-12-09T01:46:24.666Z,18.15
2023-12-09T01:48:52.140Z,17.65
2023-12-09T01:51:19.435Z,17.60
2023-12-09T01:53:46.583Z,16.85
2023-12-09T01:56:16.913Z,15.88
2023-12-09T01:58:44.100Z,16.02
2023-12-09T02:01:11.368Z,17.58
2023-12-09T02:03:39.039Z,16.15
2023-12-09T02:06:06.298Z,15.10
2023-12-09T02:08:34.306Z,14.60
2023-12-09T02:11:14.522Z,13.90
2023-12-09T02:13:56.417Z,15.35
2023-12-09T02:16:54.615Z,14.27
2023-12-09T02:19:22.530Z,14.38
2023-12-09T02:22:04.803Z,16.30
2023-12-09T02:24:32.329Z,14.60
2023-12-09T02:27:22.460Z,14.32
2023-12-09T02:29:59.792Z,13.95
2023-12-09T02:32:32.357Z,15.15
2023-12-09T02:35:01.132Z,15.02
2023-12-09T02:37:29.380Z,12.52
2023-12-09T02:39:57.667Z,15.88
2023-12-09T02:42:25.234Z,15.07
2023-12-09T02:44:52.687Z,14.13
2023-12-09T02:47:19.720Z,15.38
2023-12-09T02:49:46.613Z,14.45
2023-12-09T02:52:13.914Z,14.23
2023-12-09T02:54:40.900Z,14.27
2023-12-09T02:57:07.897Z,14.60
2023-12-09T02:59:35.243Z,16.35
2023-12-09T03:02:02.083Z,13.13
2023-12-09T03:04:29.528Z,15.30
2023-12-09T03:06:56.361Z,14.90
2023-12-09T03:09:23.633Z,15.32
2023-12-09T03:11:50.547Z,15.13
2023-12-09T03:14:17.388Z,14.93
2023-12-09T03:16:44.294Z,15.38
2023-12-09T03:19:11.420Z,15.77
2023-12-09T03:21:38.425Z,16.02
2023-12-09T03:24:05.517Z,14.32
2023-12-09T03:26:33.043Z,14.23
2023-12-09T03:28:59.897Z,15.02
2023-12-09T03:31:26.931Z,15.50
2023-12-09T03:33:53.838Z,14.35
2023-12-09T03:36:20.833Z,14.43
2023-12-09T03:38:47.796Z,15.38
2023-12-09T03:41:14.711Z,15.43
2023-12-09T03:43:41.860Z,13.63
2023-12-09T03:46:08.833Z,14.65
2023-12-09T03:48:35.838Z,15.20
2023-12-09T03:51:03.291Z,15.30
2023-12-09T03:53:30.253Z,14.10
2023-12-09T03:55:57.241Z,15.52
2023-12-09T03:58:27.077Z,15.57
2023-12-09T04:00:54.264Z,16.92
2023-12-09T04:03:21.236Z,16.65
2023-12-09T04:05:48.285Z,16.98
2023-12-09T04:08:15.247Z,16.08
2023-12-09T04:10:42.143Z,17.50
2023-12-09T04:13:09.104Z,18.15
2023-12-09T04:15:36.310Z,16.48
2023-12-09T04:18:03.540Z,16.73
2023-12-09T04:20:30.502Z,14.82
2023-12-09T04:22:57.439Z,15.77
2023-12-09T04:25:25.844Z,17.02
2023-12-09T04:27:53.151Z,17.10
2023-12-09T04:30:20.120Z,15.73
2023-12-09T04:32:47.112Z,16.38
2023-12-09T04:35:13.993Z,17.83
2023-12-09T04:37:41.036Z,17.60
2023-12-09T04:40:11.871Z,19.52
2023-12-09T04:42:41.608Z,18.05
2023-12-09T04:45:09.039Z,17.33
2023-12-09T04:47:36.321Z,18.95
2023-12-09T04:50:05.311Z,16.85
2023-12-09T04:52:32.385Z,18.13
2023-12-09T04:54:59.289Z,17.77
2023-12-09T04:57:27.609Z,17.35
2023-12-09T04:59:55.758Z,16.85
2023-12-09T05:02:22.717Z,16.75
2023-12-09T05:04:49.796Z,18.88
2023-12-09T05:07:16.764Z,16.25
2023-12-09T05:09:43.734Z,16.60
2023-12-09T05:12:11.094Z,15.52
2023-12-09T05:14:38.081Z,15.23
2023-12-09T05:17:05.277Z,15.70
2023-12-09T05:19:32.182Z,14.40
2023-12-09T05:21:59.078Z,15.25
2023-12-09T05:24:25.956Z,15.25
2023-12-09T05:26:53.013Z,15.38
2023-12-09T05:29:19.950Z,14.82
2023-12-09T05:31:46.825Z,11.68
2023-12-09T05:34:13.925Z,13.68
2023-12-09T05:36:40.817Z,13.98
2023-12-09T05:39:08.156Z,15.40
2023-12-09T05:41:35.163Z,12.82
2023-12-09T05:44:02.123Z,12.30
2023-12-09T05:46:29.068Z,14.05
2023-12-09T05:48:55.992Z,11.05
2023-12-09T05:51:22.976Z,14.23
2023-12-09T05:53:50.056Z,12.60
2023-12-09T05:56:16.968Z,9.68
2023-12-09T05:58:43.911Z,13.40
2023-12-09T06:01:11.365Z,11.77
2023-12-09T06:03:38.381Z,12.85
2023-12-09T06:06:06.206Z,13.65
2023-12-09T06:08:34.014Z,14.98
2023-12-09T06:11:01.170Z,14.23
2023-12-09T06:13:28.036Z,14.70
2023-12-09T06:15:54.990Z,15.02
2023-12-09T06:18:21.970Z,14.02
2023-12-09T06:20:48.902Z,14.90
2023-12-09T06:23:15.818Z,14.55
2023-12-09T06:25:42.724Z,14.95
2023-12-09T06:28:09.735Z,12.98
2023-12-09T06:30:36.652Z,15.82
2023-12-09T06:33:03.730Z,15.48
2023-12-09T06:35:30.757Z,16.75
2023-12-09T06:37:57.921Z,17.35
2023-12-09T06:40:24.952Z,16.25
2023-12-09T06:42:51.907Z,13.35
2023-12-09T06:45:18.969Z,17.02
2023-12-09T06:47:45.982Z,15.18
2023-12-09T06:50:13.216Z,15.95
2023-12-09T06:52:40.679Z,16.92
2023-12-09T06:55:08.511Z,17.00
2023-12-09T06:57:36.247Z,16.48
2023-12-09T07:00:08.622Z,16.42
2023-12-09T07:02:44.835Z,15.00
2023-12-09T07:05:20.507Z,15.32
2023-12-09T07:07:50.036Z,13.50
2023-12-09T07:10:17.609Z,16.58
2023-12-09T07:12:45.227Z,15.20
2023-12-09T07:15:13.609Z,16.10
2023-12-09T07:17:40.971Z,14.48
2023-12-09T07:20:08.570Z,15.65
2023-12-09T07:22:35.434Z,8.27
2023-12-09T07:25:02.366Z,12.73
2023-12-09T07:27:29.404Z,9.80
2023-12-09T07:29:56.457Z,14.23
2023-12-09T07:32:23.805Z,12.60
2023-12-09T07:34:55.365Z,13.38
2023-12-09T07:37:24.031Z,13.48
2023-12-09T07:39:51.372Z,11.65
2023-12-09T07:42:18.416Z,11.77
2023-12-09T07:44:45.691Z,12.77
2023-12-09T07:47:12.528Z,10.30
2023-12-09T07:49:39.517Z,12.75
2023-12-09T07:52:07.169Z,12.23
2023-12-09T07:54:34.102Z,11.00
2023-12-09T07:57:01.188Z,9.65
2023-12-09T07:59:28.062Z,10.93
2023-12-09T08:01:55.773Z,10.25
2023-12-09T08:04:22.745Z,11.18
2023-12-09T08:06:49.713Z,10.70
2023-12-09T08:09:17.048Z,10.55
2023-12-09T08:11:43.954Z,10.52
2023-12-09T08:14:11.320Z,8.98
2023-12-09T08:16:38.549Z,10.68
2023-12-09T08:19:05.483Z,7.80
2023-12-09T08:21:38.876Z,9.15
2023-12-09T08:24:08.098Z,3.92
2023-12-09T08:26:36.260Z,8.43
2023-12-09T08:29:05.058Z,6.68
2023-12-09T08:31:35.356Z,7.25
2023-12-09T08:34:03.446Z,8.32
2023-12-09T08:36:30.555Z,8.18
2023-12-09T08:38:57.552Z,6.72
2023-12-09T08:41:24.487Z,5.93
2023-12-09T08:43:55.192Z,7.32
2023-12-09T08:46:22.123Z,7.40
2023-12-09T08:48:49.380Z,7.63
2023-12-09T08:51:16.679Z,6.30
2023-12-09T08:53:43.647Z,7.28
2023-12-09T08:56:10.704Z,6.43
2023-12-09T08:58:37.769Z,5.88
2023-12-09T09:01:05.059Z,6.85
2023-12-09T09:03:32.205Z,6.13
2023-12-09T09:05:59.527Z,5.50
2023-12-09T09:08:26.499Z,6.78
2023-12-09T09:10:54.097Z,5.93
2023-12-09T09:13:21.097Z,4.68
2023-12-09T09:15:48.207Z,7.53
2023-12-09T09:18:15.397Z,6.45
2023-12-09T09:20:44.215Z,5.93
2023-12-09T09:23:12.095Z,5.80
2023-12-09T09:25:39.313Z,6.93
2023-12-09T09:28:06.808Z,5.00
2023-12-09T09:30:33.783Z,5.40
2023-12-09T09:33:01.530Z,4.38
2023-12-09T09:35:28.632Z,5.88
2023-12-09T09:37:55.605Z,6.05
2023-12-09T09:40:22.649Z,5.72
2023-12-09T09:42:58.220Z,6.10
2023-12-09T09:45:31.528Z,5.45
2023-12-09T09:48:06.202Z,6.43
2023-12-09T09:50:46.838Z,3.83
2023-12-09T09:53:16.710Z,3.65
2023-12-09T09:55:43.756Z,3.53
2023-12-09T09:58:12.374Z,4.90
2023-12-09T10:00:40.082Z,4.50
2023-12-09T10:03:07.874Z,4.78
2023-12-09T10:05:35.005Z,4.20
2023-12-09T10:08:02.155Z,4.95
2023-12-09T10:10:31.247Z,4.70
2023-12-09T10:12:58.272Z,4.38
2023-12-09T10:15:25.341Z,4.97
2023-12-09T10:17:52.341Z,4.65
2023-12-09T10:20:19.323Z,4.50
2023-12-09T10:22:48.176Z,3.38
2023-12-09T10:25:23.451Z,4.10
2023-12-09T10:27:50.537Z,4.05
2023-12-09T10:30:22.206Z,3.60
2023-12-09T10:32:50.107Z,3.30
2023-12-09T10:35:18.206Z,3.78
2023-12-09T10:37:45.391Z,4.13
2023-12-09T10:40:12.706Z,3.03
2023-12-09T10:42:39.652Z,4.28
2023-12-09T10:45:09.353Z,3.80
2023-12-09T10:47:36.877Z,3.67
2023-12-09T10:50:05.095Z,3.47
2023-12-09T10:52:34.173Z,4.65
2023-12-09T10:55:02.086Z,3.28
2023-12-09T10:57:30.133Z,3.65
2023-12-09T10:59:58.184Z,3.65
2023-12-09T11:02:27.531Z,3.15
2023-12-09T11:04:55.511Z,3.17
2023-12-09T11:07:22.855Z,3.53
2023-12-09T11:09:50.400Z,3.33
2023-12-09T11:12:32.204Z,3.47
2023-12-09T11:15:14.955Z,3.63
2023-12-09T11:17:45.302Z,1.98
2023-12-09T11:20:16.374Z,3.17
2023-12-09T11:22:45.339Z,2.35
2023-12-09T11:25:19.223Z,3.17
2023-12-09T11:27:49.361Z,1.15
2023-12-09T11:30:41.226Z,2.45
2023-12-09T11:33:09.374Z,2.80
2023-12-09T11:35:37.972Z,4.53
2023-12-09T11:38:06.712Z,2.53
2023-12-09T11:40:34.376Z,3.75
2023-12-09T11:43:04.722Z,3.60
2023-12-09T11:45:33.154Z,3.08
2023-12-09T11:48:01.386Z,3.25
2023-12-09T11:50:30.398Z,2.70
2023-12-09T11:52:57.364Z,2.22
2023-12-09T11:55:24.390Z,2.53
2023-12-09T11:57:51.341Z,3.33
2023-12-09T12:00:20.162Z,3.28
2023-12-09T12:02:49.567Z,3.47
2023-12-09T12:05:17.176Z,2.42
2023-12-09T12:07:44.095Z,3.08
2023-12-09T12:10:11.619Z,3.30
2023-12-09T12:12:38.607Z,4.03
2023-12-09T12:15:06.450Z,3.15
2023-12-09T12:17:41.311Z,3.70
2023-12-09T12:20:11.799Z,2.40
2023-12-09T12:22:40.811Z,3.45
2023-12-09T12:25:09.760Z,3.30
2023-12-09T12:27:46.532Z,3.15
2023-12-09T12:30:14.874Z,1.90
2023-12-09T12:32:43.754Z,3.42
2023-12-09T12:35:11.029Z,3.28
2023-12-09T12:37:38.152Z,2.60
2023-12-09T12:40:06.386Z,1.85
2023-12-09T12:42:34.134Z,2.90
2023-12-09T12:45:01.474Z,3.33
2023-12-09T12:47:28.605Z,2.22
2023-12-09T12:49:55.738Z,1.73
2023-12-09T12:52:22.738Z,2.85
2023-12-09T12:54:49.704Z,2.03
2023-12-09T12:57:16.711Z,3.53
2023-12-09T12:59:44.441Z,2.13
2023-12-09T13:02:11.741Z,2.63
2023-12-09T13:04:38.686Z,2.97
2023-12-09T13:07:05.705Z,2.08
2023-12-09T13:09:35.764Z,1.83
2023-12-09T13:12:03.048Z,3.30
2023-12-09T13:14:30.092Z,2.03
2023-12-09T13:16:58.055Z,1.92
2023-12-09T13:19:24.964Z,1.30
2023-12-09T13:21:52.029Z,1.35
2023-12-09T13:24:19.088Z,2.05
2023-12-09T13:26:46.007Z,1.63
2023-12-09T13:29:13.080Z,1.67
2023-12-09T13:31:40.109Z,1.83
2023-12-09T13:34:07.165Z,2.38
2023-12-09T13:36:40.800Z,4.00
2023-12-09T13:39:12.695Z,3.60
2023-12-09T13:41:41.261Z,1.88
2023-12-09T13:44:08.216Z,1.83
2023-12-09T13:46:35.107Z,2.40
2023-12-09T13:49:02.170Z,1.70
2023-12-09T13:51:29.800Z,1.70
2023-12-09T13:53:58.741Z,1.17
2023-12-09T13:56:26.059Z,1.85
2023-12-09T13:58:53.002Z,2.35
2023-12-09T14:01:20.250Z,1.95
2023-12-09T14:03:47.407Z,0.82
2023-12-09T14:06:14.594Z,1.65
2023-12-09T14:08:42.373Z,1.67
2023-12-09T14:11:10.583Z,1.52
2023-12-09T14:13:37.573Z,1.23
2023-12-09T14:16:04.986Z,1.42
2023-12-09T14:18:32.138Z,1.30
2023-12-09T14:20:59.795Z,1.85
2023-12-09T14:23:29.106Z,1.30
2023-12-09T14:25:56.108Z,1.35
2023-12-09T14:28:24.500Z,1.25
2023-12-09T14:30:52.635Z,1.27
2023-12-09T14:33:19.969Z,1.23
2023-12-09T14:35:47.148Z,1.40
2023-12-09T14:38:14.230Z,1.23
2023-12-09T14:40:41.701Z,1.25
2023-12-09T14:43:11.791Z,1.35
2023-12-09T14:45:39.104Z,1.05
2023-12-09T14:48:08.280Z,2.13
2023-12-09T14:50:36.524Z,0.90
2023-12-09T14:53:03.518Z,2.53
2023-12-09T14:55:30.713Z,3.10
2023-12-09T14:57:57.878Z,1.25
2023-12-09T15:00:25.361Z,3.10
2023-12-09T15:02:52.408Z,2.13
2023-12-09T15:05:19.329Z,3.95
2023-12-09T15:07:46.911Z,1.20
2023-12-09T15:10:14.366Z,1.55
2023-12-09T15:12:41.387Z,1.42
2023-12-09T15:15:10.007Z,1.48
2023-12-09T15:17:38.713Z,1.60
2023-12-09T15:20:10.608Z,1.70
2023-12-09T15:22:38.441Z,1.75
2023-12-09T15:25:06.096Z,1.40
2023-12-09T15:27:33.328Z,1.20
2023-12-09T15:30:00.396Z,3.42
2023-12-09T15:32:28.202Z,1.38
2023-12-09T15:34:55.735Z,1.30
2023-12-09T15:37:22.905Z,1.13
2023-12-09T15:39:50.024Z,0.55
2023-12-09T15:42:17.736Z,1.02
2023-12-09T15:44:45.035Z,1.52
2023-12-09T15:47:12.659Z,1.23
2023-12-09T15:49:39.812Z,1.30
2023-12-09T15:52:06.825Z,0.95
2023-12-09T15:54:36.972Z,2.15
2023-12-09T15:57:04.472Z,1.13
2023-12-09T15:59:31.512Z,1.63
2023-12-09T16:01:58.462Z,1.40
2023-12-09T16:04:25.404Z,1.10
2023-12-09T16:06:52.356Z,1.50
2023-12-09T16:09:19.633Z,1.80
2023-12-09T16:11:46.681Z,7.15
2023-12-09T16:14:13.584Z,1.92
2023-12-09T16:16:40.745Z,1.33
2023-12-09T16:19:08.314Z,1.70
2023-12-09T16:21:35.501Z,1.85
2023-12-09T16:24:02.520Z,1.38
2023-12-09T16:26:32.802Z,1.50
2023-12-09T16:29:01.668Z,0.77
2023-12-09T16:31:28.709Z,1.67
2023-12-09T16:33:55.875Z,2.25
2023-12-09T16:36:23.243Z,1.73
2023-12-09T16:38:50.121Z,3.00
2023-12-09T16:41:17.053Z,2.30
2023-12-09T16:43:44.131Z,2.17
2023-12-09T16:46:11.143Z,2.42
2023-12-09T16:48:38.732Z,2.17
2023-12-09T16:51:06.118Z,4.25
2023-12-09T16:53:33.023Z,2.67
2023-12-09T16:56:01.000Z,3.50
2023-12-09T16:58:28.349Z,2.80
2023-12-09T17:00:55.563Z,2.95
2023-12-09T17:03:24.621Z,2.63
2023-12-09T17:05:52.263Z,4.43
2023-12-09T17:08:19.237Z,5.82
2023-12-09T17:10:46.269Z,4.50
2023-12-09T17:13:13.201Z,4.55
2023-12-09T17:15:40.161Z,4.80
2023-12-09T17:18:07.373Z,6.18
2023-12-09T17:20:34.368Z,5.68
2023-12-09T17:23:01.280Z,9.48
2023-12-09T17:25:28.207Z,4.45
2023-12-09T17:27:55.143Z,6.90
2023-12-09T17:30:22.373Z,7.57
2023-12-09T17:32:51.144Z,29.10
2023-12-09T17:35:18.135Z,17.90
2023-12-09T17:37:45.094Z,8.88
2023-12-09T17:40:12.595Z,9.00
2023-12-09T17:42:39.546Z,9.98
2023-12-09T17:45:08.084Z,10.00
2023-12-09T17:47:37.569Z,9.93
2023-12-09T17:50:06.323Z,9.60
2023-12-09T17:52:35.572Z,11.73
2023-12-09T17:55:05.639Z,11.93
2023-12-09T17:57:32.741Z,30.27
2023-12-09T17:59:59.718Z,13.07
2023-12-09T18:02:27.078Z,15.20
2023-12-09T18:04:54.267Z,14.68
2023-12-09T18:07:21.694Z,14.27
2023-12-09T18:09:49.340Z,14.85
2023-12-09T18:12:16.359Z,12.65
2023-12-09T18:14:43.254Z,14.10
2023-12-09T18:17:10.803Z,16.73
2023-12-09T18:19:37.769Z,18.60
2023-12-09T18:22:04.860Z,14.00
2023-12-09T18:24:31.782Z,13.32
2023-12-09T18:26:59.006Z,24.35
2023-12-09T18:29:28.537Z,17.17
2023-12-09T18:31:55.513Z,10.75
2023-12-09T18:34:23.147Z,15.50
2023-12-09T18:36:50.547Z,18.83
2023-12-09T18:39:21.544Z,14.35
2023-12-09T18:41:48.421Z,19.55
2023-12-09T18:44:16.359Z,15.27
2023-12-09T18:46:43.398Z,19.77
2023-12-09T18:49:11.150Z,16.63
2023-12-09T18:51:38.310Z,10.98
2023-12-09T18:54:05.377Z,13.10
2023-12-09T18:56:36.440Z,9.25
2023-12-09T18:59:03.986Z,12.13
2023-12-09T19:01:31.710Z,10.70
2023-12-09T19:04:01.672Z,10.57
2023-12-09T19:06:29.149Z,9.45
2023-12-09T19:08:56.729Z,9.15
2023-12-09T19:11:23.987Z,8.90
2023-12-09T19:13:50.911Z,9.10
2023-12-09T19:16:17.825Z,10.73
2023-12-09T19:18:44.806Z,10.68
2023-12-09T19:21:11.777Z,11.68
2023-12-09T19:23:38.834Z,14.05
2023-12-09T19:26:06.846Z,12.60
2023-12-09T19:28:33.964Z,16.10
2023-12-09T19:31:00.859Z,15.38
2023-12-09T19:33:28.039Z,10.45
2023-12-09T19:35:55.095Z,17.35
2023-12-09T19:38:21.958Z,10.25
2023-12-09T19:40:50.081Z,17.15
2023-12-09T19:43:17.245Z,20.13
2023-12-09T19:45:44.119Z,13.07
2023-12-09T19:48:15.384Z,23.55
2023-12-09T19:50:47.876Z,14.02
2023-12-09T19:53:15.424Z,12.02
2023-12-09T19:55:42.436Z,12.27
2023-12-09T19:58:09.482Z,9.73
2023-12-09T20:00:36.907Z,10.27
2023-12-09T20:03:06.345Z,10.85
2023-12-09T20:05:33.262Z,8.00
2023-12-09T20:08:00.136Z,8.05
2023-12-09T20:10:27.202Z,8.18
2023-12-09T20:12:55.167Z,6.63
2023-12-09T20:17:56.771Z,7.60
2023-12-09T20:20:29.707Z,8.60
2023-12-09T20:23:00.024Z,7.32
2023-12-09T20:25:27.160Z,9.13
2023-12-09T20:27:54.714Z,7.55
2023-12-09T20:30:22.424Z,8.23
2023-12-09T20:32:50.239Z,8.02
2023-12-09T20:35:17.270Z,7.90
2023-12-09T20:37:44.230Z,8.13
2023-12-09T20:40:11.710Z,12.35
2023-12-09T20:42:39.071Z,34.38
2023-12-09T20:45:06.733Z,17.25
2023-12-09T20:47:33.843Z,28.88
2023-12-09T20:50:00.949Z,9.82
2023-12-09T20:52:28.218Z,19.80
2023-12-09T20:54:55.257Z,8.15
2023-12-09T20:57:22.287Z,10.95
2023-12-09T20:59:49.474Z,12.13
2023-12-09T21:02:17.220Z,12.32
2023-12-09T21:04:45.487Z,7.95
2023-12-09T21:07:12.521Z,9.88
2023-12-09T21:09:40.886Z,13.95
2023-12-09T21:12:08.761Z,5.68
2023-12-09T21:14:35.805Z,5.68
2023-12-09T21:17:02.767Z,12.40
2023-12-09T21:19:35.487Z,11.52
2023-12-09T21:22:05.877Z,6.65
2023-12-09T21:24:32.949Z,7.20
2023-12-09T21:27:00.011Z,6.75
2023-12-09T21:29:27.403Z,5.63
2023-12-09T21:31:54.753Z,6.95
2023-12-09T21:34:21.854Z,8.45
2023-12-09T21:36:48.989Z,7.18
2023-12-09T21:39:15.924Z,9.73
2023-12-09T21:41:42.992Z,6.22
2023-12-09T21:44:09.835Z,6.95
2023-12-09T21:46:36.733Z,9.13
2023-12-09T21:49:03.702Z,6.38
2023-12-09T21:51:30.766Z,11.05
2023-12-09T21:53:57.715Z,11.05
2023-12-09T21:56:26.855Z,7.18
2023-12-09T21:58:54.185Z,8.07
2023-12-09T22:01:22.272Z,8.50
2023-12-09T22:03:49.968Z,8.48
2023-12-09T22:06:17.095Z,9.50
2023-12-09T22:08:44.583Z,6.70
2023-12-09T22:11:12.615Z,9.95
2023-12-09T22:13:40.366Z,6.32
2023-12-09T22:16:07.739Z,4.07
2023-12-09T22:18:35.641Z,8.80
2023-12-09T22:21:02.953Z,6.28
2023-12-09T22:23:29.960Z,8.40
2023-12-09T22:25:56.938Z,8.13
2023-12-09T22:28:23.819Z,6.35
2023-12-09T22:30:50.886Z,11.05
2023-12-09T22:33:18.723Z,21.13
2023-12-09T22:35:45.766Z,9.82
2023-12-09T22:38:13.451Z,7.05
2023-12-09T22:40:40.474Z,7.28
2023-12-09T22:43:07.512Z,6.78
2023-12-09T22:45:34.702Z,9.00
2023-12-09T22:48:02.818Z,6.93
2023-12-09T22:50:29.852Z,6.90
2023-12-09T22:52:56.779Z,6.65
2023-12-09T22:55:24.270Z,6.35
2023-12-09T22:57:51.429Z,8.13
2023-12-09T23:00:27.500Z,7.50
2023-12-09T23:02:54.799Z,6.63
2023-12-09T23:05:21.642Z,7.18
2023-12-09T23:07:48.501Z,7.32
2023-12-09T23:10:15.592Z,6.03
2023-12-09T23:12:42.688Z,7.97
2023-12-09T23:15:10.562Z,6.03
2023-12-09T23:17:37.660Z,7.35
2023-12-09T23:20:05.249Z,5.70
2023-12-09T23:22:32.121Z,7.00
2023-12-09T23:24:58.925Z,7.47
2023-12-09T23:27:25.881Z,6.80
2023-12-09T23:29:52.828Z,6.45
2023-12-09T23:32:19.784Z,6.75
2023-12-09T23:34:46.713Z,7.20
2023-12-09T23:37:13.846Z,6.97
2023-12-09T23:39:40.765Z,7.75
2023-12-09T23:42:07.817Z,6.88
2023-12-09T23:44:35.285Z,6.53
2023-12-09T23:47:02.172Z,7.28
2023-12-09T23:49:29.234Z,7.53
2023-12-09T23:51:56.450Z,6.35
2023-12-09T23:54:24.244Z,7.20
2023-12-09T23:56:51.412Z,6.32
2023-12-09T23:59:18.334Z,6.40
